createdAt,value
2023-10-09T12:48:39.216Z,18.89
2023-10-09T12:51:41.861Z,19.00
2023-10-09T12:54:47.331Z,19.16
2023-10-09T12:57:52.646Z,19.33
2023-10-09T13:00:55.353Z,19.46
2023-10-09T13:04:00.797Z,19.64
2023-10-09T13:07:05.774Z,19.80
2023-10-09T13:10:14.485Z,19.95
2023-10-09T13:13:17.181Z,20.11
2023-10-09T13:16:24.441Z,20.20
2023-10-09T13:19:28.817Z,20.28
2023-10-09T13:22:31.726Z,20.34
2023-10-09T13:25:40.786Z,20.38
2023-10-09T13:28:46.379Z,20.45
2023-10-09T13:31:49.293Z,20.49
2023-10-09T13:34:56.569Z,20.55
2023-10-09T13:37:59.948Z,20.58
2023-10-09T13:41:03.095Z,20.65
2023-10-09T13:44:06.121Z,20.71
2023-10-09T13:47:20.054Z,20.82
2023-10-09T13:50:30.846Z,20.94
2023-10-09T13:53:36.493Z,21.07
2023-10-09T13:56:40.279Z,21.14
2023-10-09T13:59:50.049Z,21.19
2023-10-09T14:02:52.951Z,21.21
2023-10-09T14:05:58.152Z,21.24
2023-10-09T14:09:03.172Z,21.26
2023-10-09T14:12:10.242Z,21.25
2023-10-09T14:15:18.237Z,21.23
2023-10-09T14:18:21.199Z,21.21
2023-10-09T14:21:26.839Z,21.21
2023-10-09T14:24:34.090Z,21.19
2023-10-09T14:27:36.892Z,21.16
2023-10-09T14:30:43.900Z,21.08
2023-10-09T14:33:52.580Z,21.00
2023-10-09T14:36:56.834Z,20.93
2023-10-09T14:39:59.997Z,20.87
2023-10-09T14:43:04.438Z,20.82
2023-10-09T14:46:11.998Z,20.77
2023-10-09T14:49:15.512Z,20.73
2023-10-09T14:52:21.099Z,20.71
2023-10-09T14:55:30.194Z,20.69
2023-10-09T14:58:36.100Z,20.67
2023-10-09T15:01:39.091Z,20.66
2023-10-09T15:04:41.903Z,20.64
2023-10-09T15:07:47.637Z,20.63
2023-10-09T15:10:52.683Z,20.63
2023-10-09T15:13:55.514Z,20.63
2023-10-09T15:16:59.092Z,20.63
2023-10-09T15:20:03.184Z,20.61
2023-10-09T15:23:07.332Z,20.58
2023-10-09T15:26:10.206Z,20.55
2023-10-09T15:29:13.367Z,20.49
2023-10-09T15:32:23.503Z,20.46
2023-10-09T15:35:26.274Z,20.43
2023-10-09T15:38:30.402Z,20.38
2023-10-09T15:41:33.241Z,20.35
2023-10-09T15:44:37.914Z,20.32
2023-10-09T15:47:41.235Z,20.30
2023-10-09T15:50:49.411Z,20.28
2023-10-09T15:53:53.522Z,20.24
2023-10-09T16:00:14.653Z,20.17
2023-10-09T16:03:17.456Z,20.16
2023-10-09T16:06:20.255Z,20.15
2023-10-09T16:09:26.710Z,20.14
2023-10-09T16:12:31.890Z,20.08
2023-10-09T16:15:34.683Z,20.04
2023-10-09T16:18:38.912Z,19.98
2023-10-09T16:21:41.657Z,19.95
2023-10-09T16:24:45.771Z,19.92
2023-10-09T16:27:48.719Z,19.92
2023-10-09T16:30:51.539Z,19.92
2023-10-09T16:33:54.283Z,19.91
2023-10-09T16:36:57.018Z,19.91
2023-10-09T16:40:06.793Z,19.89
2023-10-09T16:43:14.540Z,19.88
2023-10-09T16:46:18.028Z,19.87
2023-10-09T16:49:26.095Z,19.86
2023-10-09T16:52:28.731Z,19.82
2023-10-09T16:55:32.778Z,19.80
2023-10-09T16:58:35.635Z,19.78
2023-10-09T17:01:38.790Z,19.74
2023-10-09T17:04:43.676Z,19.70
2023-10-09T17:07:46.696Z,19.67
2023-10-09T17:10:52.452Z,19.65
2023-10-09T17:13:58.797Z,19.63
2023-10-09T17:17:01.792Z,19.62
2023-10-09T17:20:11.035Z,19.61
2023-10-09T17:23:13.890Z,19.61
2023-10-09T17:26:19.431Z,19.58
2023-10-09T17:29:22.341Z,19.58
2023-10-09T17:32:25.199Z,19.55
2023-10-09T17:35:29.062Z,19.52
2023-10-09T17:38:32.290Z,19.51
2023-10-09T17:41:36.985Z,19.49
2023-10-09T17:44:40.755Z,19.48
2023-10-09T17:47:45.232Z,19.48
2023-10-09T17:50:48.037Z,19.47
2023-10-09T17:53:50.767Z,19.46
2023-10-09T17:56:56.863Z,19.44
2023-10-09T17:59:59.588Z,19.41
2023-10-09T18:03:02.434Z,19.40
2023-10-09T18:06:06.445Z,19.38
2023-10-09T18:09:17.026Z,19.38
2023-10-09T18:12:22.716Z,19.37
2023-10-09T18:15:25.514Z,19.36
2023-10-09T18:18:28.265Z,19.34
2023-10-09T18:21:31.000Z,19.30
2023-10-09T18:24:40.367Z,19.25
2023-10-09T18:27:44.405Z,19.20
2023-10-09T18:30:50.302Z,19.17
2023-10-09T18:33:54.181Z,19.13
2023-10-09T18:36:57.218Z,19.07
2023-10-09T18:40:00.715Z,19.04
2023-10-09T18:43:05.743Z,19.00
2023-10-09T18:46:10.422Z,18.97
2023-10-09T18:49:13.673Z,18.93
2023-10-09T18:52:17.708Z,18.90
2023-10-09T18:55:22.532Z,18.88
2023-10-09T18:58:26.602Z,18.84
2023-10-09T19:01:30.309Z,18.81
2023-10-09T19:04:33.961Z,18.79
2023-10-09T19:07:37.253Z,18.78
2023-10-09T19:13:48.087Z,18.76
2023-10-09T19:16:50.966Z,18.75
2023-10-09T19:19:53.907Z,18.73
2023-10-09T19:22:56.632Z,18.72
2023-10-09T19:25:59.402Z,18.72
2023-10-09T19:29:03.544Z,18.72
2023-10-09T19:32:06.888Z,18.70
2023-10-09T19:35:10.122Z,18.69
2023-10-09T19:38:13.745Z,18.67
2023-10-09T19:41:17.702Z,18.67
2023-10-09T19:44:21.840Z,18.65
2023-10-09T19:47:24.741Z,18.62
2023-10-09T19:50:27.492Z,18.60
2023-10-09T19:53:30.333Z,18.58
2023-10-09T19:56:33.090Z,18.57
2023-10-09T19:59:37.502Z,18.55
2023-10-09T20:02:42.317Z,18.53
2023-10-09T20:05:45.108Z,18.51
2023-10-09T20:08:48.675Z,18.50
2023-10-09T20:11:51.512Z,18.50
2023-10-09T20:14:56.236Z,18.48
2023-10-09T20:17:58.955Z,18.43
2023-10-09T20:21:02.160Z,18.42
2023-10-09T20:24:05.089Z,18.41
2023-10-09T20:27:07.821Z,18.38
2023-10-09T20:30:13.091Z,18.35
2023-10-09T20:33:17.263Z,18.33
2023-10-09T20:36:20.602Z,18.30
2023-10-09T20:39:24.423Z,18.27
2023-10-09T20:42:28.667Z,18.22
2023-10-09T20:45:34.322Z,18.17
2023-10-09T20:48:38.462Z,18.13
2023-10-09T20:51:54.347Z,18.10
2023-10-09T20:54:59.690Z,18.08
2023-10-09T20:58:02.487Z,18.07
2023-10-09T21:01:15.665Z,18.06
2023-10-09T21:04:19.212Z,18.02
2023-10-09T21:07:21.944Z,17.98
2023-10-09T21:10:24.880Z,17.94
2023-10-09T21:13:28.058Z,17.91
2023-10-09T21:16:32.193Z,17.92
2023-10-09T21:19:34.928Z,17.88
2023-10-09T21:22:39.341Z,17.84
2023-10-09T21:25:42.003Z,17.83
2023-10-09T21:28:45.320Z,17.83
2023-10-09T21:31:50.474Z,17.82
2023-10-09T21:34:53.726Z,17.76
2023-10-09T21:37:57.308Z,17.69
2023-10-09T21:41:02.224Z,17.65
2023-10-09T21:44:05.212Z,17.62
2023-10-09T21:47:09.306Z,17.60
2023-10-09T21:50:13.407Z,17.60
2023-10-09T21:53:17.524Z,17.62
2023-10-09T21:56:21.319Z,17.60
2023-10-09T21:59:24.183Z,17.57
2023-10-09T22:02:31.205Z,17.52
2023-10-09T22:05:34.129Z,17.50
2023-10-09T22:08:38.488Z,17.49
2023-10-09T22:11:41.138Z,17.51
2023-10-09T22:14:43.788Z,17.51
2023-10-09T22:17:47.993Z,17.50
2023-10-09T22:20:50.802Z,17.51
2023-10-09T22:23:54.960Z,17.48
2023-10-09T22:26:58.327Z,17.43
2023-10-09T22:30:06.297Z,17.39
2023-10-09T22:33:13.503Z,17.39
2023-10-09T22:36:28.598Z,17.39
2023-10-09T22:39:34.785Z,17.39
2023-10-09T22:42:37.480Z,17.37
2023-10-09T22:45:43.735Z,17.33
2023-10-09T22:48:52.249Z,17.29
2023-10-09T22:51:55.536Z,17.25
2023-10-09T22:55:00.803Z,17.22
2023-10-09T22:58:12.230Z,17.20
2023-10-09T23:01:19.640Z,17.18
2023-10-09T23:04:37.788Z,17.10
2023-10-09T23:07:42.655Z,17.02
2023-10-09T23:10:51.919Z,16.98
2023-10-09T23:14:07.843Z,16.96
2023-10-09T23:17:18.923Z,16.89
2023-10-09T23:20:23.408Z,16.81
2023-10-09T23:23:26.236Z,16.75
2023-10-09T23:26:34.165Z,16.70
2023-10-09T23:29:36.964Z,16.69
2023-10-09T23:32:47.845Z,16.67
2023-10-09T23:36:05.040Z,16.66
2023-10-09T23:39:14.761Z,16.64
2023-10-09T23:42:17.785Z,16.61
2023-10-09T23:45:21.946Z,16.61
2023-10-09T23:48:25.602Z,16.59
2023-10-09T23:51:30.042Z,16.59
2023-10-09T23:54:34.472Z,16.56
2023-10-09T23:57:44.089Z,16.46
